Time;durP1;ratioP1;P1;durP2;ratioP2;P2;SDS_P1;SDS_P2;PMS_P1;PMS_P2;Temp;Humidity;BMP_temperature;BMP_pressure;BME280_temperature;BME280_humidity;BME280_pressure;Samples;Min_cycle;Max_cycle;Signal;HPM_P1;HPM_P2
2022/12/14 00:01:24;;;;;;;101.00;33.83;;;;;;;-8.11;100.00;99561.16;4196053;28;20389;-69
2022/12/14 00:03:51;;;;;;;104.03;33.90;;;;;;;-8.12;100.00;99556.91;4233780;28;21456;-66
2022/12/14 00:06:21;;;;;;;109.30;35.73;;;;;;;-8.06;100.00;99558.44;4211041;28;20269;-70
2022/12/14 00:08:48;;;;;;;91.33;33.23;;;;;;;-7.92;100.00;99560.56;4223616;28;20244;-71
2022/12/14 00:11:15;;;;;;;90.87;31.93;;;;;;;-7.93;100.00;99564.06;4211228;28;20228;-68
2022/12/14 00:13:42;;;;;;;90.70;33.00;;;;;;;-7.94;100.00;99567.50;4209205;28;20295;-71
2022/12/14 00:16:16;;;;;;;90.27;32.43;;;;;;;-7.85;100.00;99562.88;4207077;28;26563;-73
2022/12/14 00:18:43;;;;;;;99.63;34.97;;;;;;;-7.89;100.00;99560.44;4206751;28;20234;-71
2022/12/14 00:21:12;;;;;;;100.13;32.23;;;;;;;-7.97;100.00;99554.72;4216229;28;20228;-69
2022/12/14 00:23:40;;;;;;;88.83;32.00;;;;;;;-7.93;100.00;99551.16;4209030;28;20279;-71
2022/12/14 00:26:18;;;;;;;101.20;32.93;;;;;;;-7.89;100.00;99547.53;4204634;28;20236;-68
2022/12/14 00:28:46;;;;;;;97.03;33.17;;;;;;;-7.93;100.00;99545.97;4208906;28;20436;-68
2022/12/14 00:31:13;;;;;;;95.27;33.60;;;;;;;-8.00;100.00;99544.50;4206155;28;21858;-69
2022/12/14 00:33:40;;;;;;;89.10;33.27;;;;;;;-7.93;100.00;99548.56;4228763;28;20517;-68
2022/12/14 00:36:09;;;;;;;91.17;31.40;;;;;;;-7.89;100.00;99544.97;4202681;28;22281;-68
2022/12/14 00:38:36;;;;;;;85.80;31.00;;;;;;;-7.93;100.00;99546.81;4220007;28;20258;-67
2022/12/14 00:41:02;;;;;;;86.03;31.90;;;;;;;-7.87;100.00;99553.50;4204051;28;20236;-69
2022/12/14 00:43:29;;;;;;;95.97;32.33;;;;;;;-7.96;100.00;99546.06;4201107;28;22254;-67
2022/12/14 00:45:55;;;;;;;95.47;32.63;;;;;;;-8.15;100.00;99546.66;4207126;28;22518;-69
2022/12/14 00:48:23;;;;;;;94.33;33.20;;;;;;;-8.04;100.00;99548.06;4210634;28;20239;-69
2022/12/14 00:50:52;;;;;;;106.60;33.67;;;;;;;-8.00;100.00;99549.66;4214325;28;20469;-68
2022/12/14 00:53:19;;;;;;;100.17;32.83;;;;;;;-7.98;100.00;99550.44;4212476;28;20234;-68
2022/12/14 00:55:46;;;;;;;97.50;31.90;;;;;;;-8.01;100.00;99545.38;4206708;28;21312;-68
2022/12/14 00:58:17;;;;;;;87.00;31.23;;;;;;;-8.03;100.00;99548.03;4205574;28;23833;-67
2022/12/14 01:00:44;;;;;;;94.57;31.67;;;;;;;-7.99;100.00;99546.16;4209607;28;20398;-71
2022/12/14 01:03:11;;;;;;;92.20;31.37;;;;;;;-8.02;100.00;99551.44;4202374;28;20244;-70
2022/12/14 01:05:38;;;;;;;101.67;32.47;;;;;;;-7.94;100.00;99549.44;4218437;28;20235;-70
2022/12/14 01:08:05;;;;;;;95.37;33.40;;;;;;;-7.97;100.00;99552.13;4203185;28;20305;-67
2022/12/14 01:10:32;;;;;;;98.50;34.67;;;;;;;-7.94;100.00;99554.59;4211136;28;20308;-66
2022/12/14 01:12:59;;;;;;;98.87;33.10;;;;;;;-7.94;100.00;99552.03;4207452;28;24281;-70
2022/12/14 01:15:25;;;;;;;96.47;32.80;;;;;;;-7.94;100.00;99546.84;4205170;28;20239;-68
2022/12/14 01:17:52;;;;;;;91.87;33.27;;;;;;;-7.91;100.00;99552.78;4208098;28;21706;-68
2022/12/14 01:20:18;;;;;;;100.60;33.13;;;;;;;-7.88;100.00;99550.09;4206182;28;21057;-69
2022/12/14 01:22:45;;;;;;;95.77;33.40;;;;;;;-7.86;100.00;99545.72;4207261;28;21758;-69
2022/12/14 01:25:11;;;;;;;103.23;35.17;;;;;;;-7.82;100.00;99548.19;4206603;28;20237;-68
2022/12/14 01:27:38;;;;;;;112.63;36.43;;;;;;;-7.78;100.00;99542.88;4212124;28;20965;-69
2022/12/14 01:30:05;;;;;;;97.77;35.00;;;;;;;-7.80;100.00;99551.56;4212272;28;20387;-71
2022/12/14 01:32:33;;;;;;;90.27;32.20;;;;;;;-7.79;100.00;99541.19;4206711;28;20227;-72
2022/12/14 01:35:00;;;;;;;104.77;34.03;;;;;;;-7.81;100.00;99542.97;4184116;28;21497;-67
2022/12/14 01:37:27;;;;;;;99.27;33.47;;;;;;;-7.79;100.00;99541.19;4203586;28;26333;-68
2022/12/14 01:39:54;;;;;;;101.70;35.67;;;;;;;-7.83;100.00;99542.19;4215567;28;20271;-70
2022/12/14 01:42:21;;;;;;;107.40;35.43;;;;;;;-7.75;100.00;99540.19;4196959;28;21769;-67
2022/12/14 01:44:52;;;;;;;94.87;33.20;;;;;;;-7.80;100.00;99544.66;4205392;28;20313;-68
2022/12/14 01:47:21;;;;;;;98.73;34.93;;;;;;;-7.83;100.00;99542.19;4208312;28;20263;-68
2022/12/14 01:49:56;;;;;;;98.77;33.40;;;;;;;-7.75;100.00;99544.50;4220961;28;21362;-68
2022/12/14 01:52:27;;;;;;;94.67;34.50;;;;;;;-7.70;100.00;99545.22;4207652;28;20672;-69
2022/12/14 01:54:59;;;;;;;109.37;35.13;;;;;;;-7.74;100.00;99549.63;4208737;28;20304;-70
2022/12/14 01:57:55;;;;;;;105.63;36.20;;;;;;;-7.88;100.00;99546.66;4194098;28;21177;-70
2022/12/14 02:00:22;;;;;;;96.07;33.83;;;;;;;-7.83;100.00;99539.59;4179702;28;20504;-68
2022/12/14 02:02:55;;;;;;;98.97;34.47;;;;;;;-7.80;100.00;99539.50;4199967;28;20227;-71
2022/12/14 02:05:23;;;;;;;103.10;34.50;;;;;;;-7.83;100.00;99536.19;4199931;28;21087;-68
2022/12/14 02:07:52;;;;;;;102.20;34.53;;;;;;;-7.79;100.00;99537.78;4222632;28;20236;-69
2022/12/14 02:10:19;;;;;;;99.57;34.17;;;;;;;-7.82;100.00;99540.44;4205688;28;20245;-68
2022/12/14 02:12:51;;;;;;;102.80;35.17;;;;;;;-7.80;100.00;99536.91;4206931;28;20236;-70
2022/12/14 02:15:18;;;;;;;103.20;34.73;;;;;;;-7.80;100.00;99529.16;4221417;28;20435;-68
2022/12/14 02:17:45;;;;;;;104.87;35.27;;;;;;;-7.74;100.00;99536.72;4194644;28;20424;-69
2022/12/14 02:20:13;;;;;;;97.93;35.13;;;;;;;-7.61;100.00;99528.53;4205324;28;20258;-70
2022/12/14 02:23:18;;;;;;;92.13;33.50;;;;;;;-7.69;100.00;99536.56;4203813;28;20401;-68
2022/12/14 02:26:19;;;;;;;94.27;34.20;;;;;;;-7.71;100.00;99534.00;4198806;28;20273;-70
2022/12/14 02:29:25;;;;;;;87.20;32.37;;;;;;;-7.76;100.00;99535.91;4206273;28;21790;-70
2022/12/14 02:32:28;;;;;;;102.87;33.27;;;;;;;-7.77;100.00;99539.41;4220970;28;20243;-70
2022/12/14 02:34:58;;;;;;;91.33;31.43;;;;;;;-7.78;100.00;99532.53;4215327;28;20259;-67
2022/12/14 02:37:46;;;;;;;96.83;34.00;;;;;;;-7.80;100.00;99531.75;4193865;28;20492;-69
2022/12/14 02:40:23;;;;;;;89.67;32.90;;;;;;;-7.79;100.00;99536.03;4211973;28;20242;-68
2022/12/14 02:43:25;;;;;;;98.40;32.73;;;;;;;-7.80;100.00;99536.91;4206809;28;20232;-71
2022/12/14 02:46:17;;;;;;;100.97;34.73;;;;;;;-7.82;100.00;99546.44;4215009;28;20227;-70
2022/12/14 02:48:48;;;;;;;90.60;32.57;;;;;;;-7.79;100.00;99546.34;4216445;28;21066;-67
2022/12/14 02:51:36;;;;;;;106.20;35.70;;;;;;;-7.95;100.00;99540.03;4211139;28;24631;-70
2022/12/14 02:54:10;;;;;;;105.97;35.73;;;;;;;-7.87;100.00;99538.88;4211983;28;23636;-72
2022/12/14 02:56:42;;;;;;;92.97;32.60;;;;;;;-7.79;100.00;99540.34;4215340;28;20231;-69
2022/12/14 02:59:09;;;;;;;87.93;31.50;;;;;;;-7.88;100.00;99541.50;4207892;28;20262;-68
2022/12/14 03:01:37;;;;;;;93.73;33.17;;;;;;;-7.93;100.00;99536.50;4236670;28;22745;-68
2022/12/14 03:04:05;;;;;;;96.70;32.10;;;;;;;-7.86;100.00;99544.88;4175623;28;20233;-70
2022/12/14 03:06:32;;;;;;;93.90;33.17;;;;;;;-7.87;100.00;99538.00;4207164;28;21548;-69
2022/12/14 03:09:05;;;;;;;94.17;34.23;;;;;;;-7.83;100.00;99544.78;4195665;28;20531;-68
2022/12/14 03:11:39;;;;;;;96.17;33.10;;;;;;;-7.77;100.00;99548.88;4214465;28;20277;-67
2022/12/14 03:14:14;;;;;;;92.93;32.30;;;;;;;-7.83;100.00;99537.03;4206293;28;20367;-68
2022/12/14 03:16:43;;;;;;;88.93;33.20;;;;;;;-7.83;100.00;99537.03;4219019;28;21335;-70
2022/12/14 03:19:10;;;;;;;92.53;32.97;;;;;;;-7.95;100.00;99535.69;4208491;28;20246;-67
2022/12/14 03:21:39;;;;;;;87.33;31.73;;;;;;;-7.87;100.00;99543.19;4218278;28;20299;-71
2022/12/14 03:24:10;;;;;;;99.17;33.83;;;;;;;-7.81;100.00;99547.31;4190795;28;20466;-69
2022/12/14 03:26:45;;;;;;;96.33;31.87;;;;;;;-7.87;100.00;99543.19;4207135;28;20309;-67
2022/12/14 03:29:27;;;;;;;106.23;34.67;;;;;;;-7.83;100.00;99544.78;4221844;28;20329;-69
2022/12/14 03:31:56;;;;;;;91.60;34.23;;;;;;;-7.89;100.00;99545.81;4217287;28;20331;-68
2022/12/14 03:34:28;;;;;;;87.27;32.00;;;;;;;-7.92;100.00;99550.22;4196979;28;21845;-70
2022/12/14 03:37:03;;;;;;;93.70;32.97;;;;;;;-7.89;100.00;99544.97;4203215;28;21627;-69
2022/12/14 03:39:32;;;;;;;104.97;33.57;;;;;;;-8.02;100.00;99548.88;4229868;28;20695;-70
2022/12/14 03:42:03;;;;;;;95.33;33.17;;;;;;;-7.97;100.00;99549.56;4174064;28;20337;-70
2022/12/14 03:44:46;;;;;;;91.10;32.33;;;;;;;-7.99;100.00;99546.16;4206808;28;22630;-68
2022/12/14 03:47:17;;;;;;;90.20;30.93;;;;;;;-8.02;100.00;99541.13;4205768;28;21361;-69
2022/12/14 04:04:04;;;;;;;99.97;37.30;;;;;;;-7.74;100.00;99551.38;4232758;27;1179254;-69
2022/12/14 04:06:54;;;;;;;97.87;35.07;;;;;;;-7.82;100.00;99545.59;4232340;28;20244;-69
2022/12/14 04:09:37;;;;;;;93.80;33.83;;;;;;;-7.77;100.00;99548.88;4234429;28;20226;-66
2022/12/14 04:21:08;;;;;;;89.03;30.30;;;;;;;-8.00;100.00;99539.34;4271309;28;20233;-67
2022/12/14 04:26:28;;;;;;;91.83;31.57;;;;;;;-8.18;100.00;99533.88;4276841;28;20237;-71
2022/12/14 04:32:04;;;;;;;82.63;29.30;;;;;;;-8.23;100.00;99546.06;4302018;27;21848;-67
2022/12/14 04:34:32;;;;;;;86.00;30.73;;;;;;;-8.11;100.00;99542.25;4266869;27;21259;-67
2022/12/14 04:37:02;;;;;;;85.37;30.37;;;;;;;-8.13;100.00;99541.47;4295176;27;20252;-68
2022/12/14 04:39:43;;;;;;;91.40;31.30;;;;;;;-8.23;100.00;99540.91;4285306;27;20231;-67
2022/12/14 04:42:10;;;;;;;93.00;32.03;;;;;;;-8.32;100.00;99538.63;4281938;27;20232;-68
2022/12/14 04:44:40;;;;;;;91.07;30.27;;;;;;;-8.31;100.00;99537.72;4276395;27;21641;-67
2022/12/14 04:47:09;;;;;;;82.40;30.13;;;;;;;-8.37;100.00;99543.09;4277297;27;21522;-67
2022/12/14 04:49:48;;;;;;;90.47;30.80;;;;;;;-8.38;100.00;99536.22;4286003;27;20271;-69
2022/12/14 04:52:16;;;;;;;88.17;31.17;;;;;;;-8.46;100.00;99543.41;4270290;27;20502;-67
2022/12/14 04:54:55;;;;;;;92.10;31.97;;;;;;;-8.66;100.00;99539.72;4304924;28;20305;-69
2022/12/14 04:57:44;;;;;;;97.63;31.73;;;;;;;-8.56;100.00;99533.38;4286288;28;20229;-69
2022/12/14 05:00:11;;;;;;;94.30;30.87;;;;;;;-8.61;100.00;99532.69;4288287;27;20225;-67
2022/12/14 05:03:04;;;;;;;82.53;29.97;;;;;;;-8.46;100.00;99533.94;4292370;27;20402;-67
2022/12/14 05:05:55;;;;;;;90.17;31.50;;;;;;;-8.65;100.00;99525.94;4285941;28;21329;-67
2022/12/14 05:08:56;;;;;;;84.50;29.43;;;;;;;-8.62;100.00;99524.97;4286408;28;20225;-68
2022/12/14 05:11:34;;;;;;;89.60;30.67;;;;;;;-8.60;100.00;99518.88;4290864;28;20232;-69
2022/12/14 05:14:31;;;;;;;87.20;29.93;;;;;;;-8.62;100.00;99512.94;4264194;28;22881;-66
2022/12/14 05:16:58;;;;;;;86.17;30.37;;;;;;;-8.63;100.00;99511.25;4264123;28;20233;-71
2022/12/14 05:19:31;;;;;;;87.00;29.80;;;;;;;-8.73;100.00;99515.00;4264952;28;20264;-70
2022/12/14 05:22:05;;;;;;;81.40;29.77;;;;;;;-8.76;100.00;99510.75;4264546;28;20432;-67
2022/12/14 05:24:31;;;;;;;86.13;31.27;;;;;;;-8.71;100.00;99518.34;4265906;28;20298;-67
2022/12/14 05:26:58;;;;;;;84.80;32.03;;;;;;;-8.83;100.00;99514.41;4272215;28;21418;-68
2022/12/14 05:29:24;;;;;;;89.90;32.67;;;;;;;-8.84;100.00;99514.50;4278376;28;20230;-70
2022/12/14 05:31:51;;;;;;;90.87;32.40;;;;;;;-8.93;100.00;99519.00;4271156;28;21308;-68
2022/12/14 05:34:17;;;;;;;85.50;30.37;;;;;;;-8.98;100.00;99520.88;4285237;27;20239;-67
2022/12/14 05:36:44;;;;;;;84.17;30.43;;;;;;;-8.85;100.00;99516.22;4282497;28;20226;-67
2022/12/14 05:39:11;;;;;;;90.33;31.03;;;;;;;-8.69;100.00;99520.91;4277182;28;20250;-70
2022/12/14 05:41:37;;;;;;;83.73;30.10;;;;;;;-8.78;100.00;99522.03;4267923;28;20248;-67
2022/12/14 05:44:04;;;;;;;97.33;33.40;;;;;;;-8.93;100.00;99529.31;4276447;28;21984;-69
2022/12/14 05:46:30;;;;;;;92.77;31.47;;;;;;;-8.88;100.00;99526.63;4267848;28;20231;-69
2022/12/14 05:48:57;;;;;;;92.50;33.10;;;;;;;-8.83;100.00;99534.22;4265254;28;20276;-70
2022/12/14 05:51:24;;;;;;;88.40;30.00;;;;;;;-8.76;100.00;99527.97;4266359;28;21844;-69
2022/12/14 05:53:51;;;;;;;93.27;32.27;;;;;;;-8.88;100.00;99525.78;4270655;28;22948;-68
2022/12/14 05:56:17;;;;;;;84.73;31.33;;;;;;;-9.01;100.00;99533.88;4262839;28;20233;-69
2022/12/14 05:58:48;;;;;;;96.90;32.43;;;;;;;-9.08;100.00;99526.34;4266006;28;20226;-67
2022/12/14 06:01:14;;;;;;;90.50;30.30;;;;;;;-9.01;100.00;99528.72;4257865;28;23194;-70
2022/12/14 06:03:45;;;;;;;91.23;30.60;;;;;;;-9.11;100.00;99529.84;4253854;28;23301;-67
2022/12/14 06:06:12;;;;;;;87.77;31.43;;;;;;;-9.06;100.00;99537.47;4256907;28;20683;-68
2022/12/14 06:08:43;;;;;;;87.13;30.43;;;;;;;-9.04;100.00;99531.38;4260212;28;20887;-68
2022/12/14 06:11:22;;;;;;;97.13;32.80;;;;;;;-9.07;100.00;99541.78;4245593;28;20236;-68
2022/12/14 06:13:48;;;;;;;84.83;29.50;;;;;;;-9.04;100.00;99541.69;4250382;28;20225;-69
2022/12/14 06:16:20;;;;;;;81.53;29.47;;;;;;;-8.98;100.00;99543.25;4261286;28;20231;-71
2022/12/14 06:18:55;;;;;;;91.17;30.87;;;;;;;-9.28;100.00;99547.53;4258254;28;20282;-69
2022/12/14 06:21:26;;;;;;;96.27;31.73;;;;;;;-9.15;100.00;99548.91;4278804;28;20293;-69
2022/12/14 06:23:53;;;;;;;93.77;31.33;;;;;;;-9.17;100.00;99545.50;4268385;28;20314;-68
2022/12/14 06:26:20;;;;;;;90.88;33.47;;;;;;;-9.04;100.00;99536.53;4265079;28;20414;-67
2022/12/14 06:28:47;;;;;;;93.17;32.40;;;;;;;-9.36;100.00;99535.72;4280777;28;20239;-70
2022/12/14 06:31:19;;;;;;;85.80;31.63;;;;;;;-9.36;100.00;99534.88;4287106;28;20234;-65
2022/12/14 06:33:46;;;;;;;96.20;32.53;;;;;;;-9.42;100.00;99540.19;4296048;28;21590;-69
2022/12/14 06:36:22;;;;;;;89.50;31.90;;;;;;;-9.36;100.00;99543.44;4256862;28;20243;-66
2022/12/14 06:38:52;;;;;;;82.00;30.53;;;;;;;-9.32;100.00;99545.94;4262598;28;20238;-65
2022/12/14 06:41:20;;;;;;;94.83;30.67;;;;;;;-9.29;100.00;99543.25;4292151;28;20959;-68
2022/12/14 06:43:46;;;;;;;98.83;32.50;;;;;;;-9.16;100.00;99547.19;4276088;28;20235;-68
2022/12/14 06:46:19;;;;;;;92.10;31.67;;;;;;;-9.15;100.00;99548.91;4271647;28;20319;-67
2022/12/14 06:48:53;;;;;;;85.43;31.47;;;;;;;-9.17;100.00;99550.66;4300410;28;20507;-65
2022/12/14 06:51:21;;;;;;;94.07;31.87;;;;;;;-9.21;100.00;99549.88;4287058;28;21167;-67
2022/12/14 06:53:51;;;;;;;92.23;32.20;;;;;;;-9.25;100.00;99548.28;4353595;28;20259;-67
2022/12/14 06:56:19;;;;;;;89.03;32.50;;;;;;;-9.24;100.00;99552.56;4351752;28;21796;-64
2022/12/14 06:58:46;;;;;;;93.27;31.27;;;;;;;-9.25;100.00;99550.03;4327971;28;20391;-65
2022/12/14 07:01:19;;;;;;;87.67;31.50;;;;;;;-9.31;100.00;99542.47;4301820;28;20843;-63
2022/12/14 07:03:58;;;;;;;89.70;33.13;;;;;;;-9.18;100.00;99548.97;4317948;28;20270;-66
2022/12/14 07:06:27;;;;;;;84.17;30.60;;;;;;;-9.03;100.00;99550.28;4300606;28;20531;-66
2022/12/14 07:08:56;;;;;;;86.93;32.60;;;;;;;-8.97;100.00;99552.66;4301910;28;20236;-67
2022/12/14 07:11:23;;;;;;;88.07;31.53;;;;;;;-8.92;100.00;99551.66;4263211;28;21894;-65
2022/12/14 07:13:52;;;;;;;88.30;30.10;;;;;;;-8.98;100.00;99545.81;4273657;28;20261;-65
2022/12/14 07:16:21;;;;;;;92.63;32.13;;;;;;;-8.93;100.00;99552.53;4263917;28;21629;-64
2022/12/14 07:18:48;;;;;;;98.27;32.77;;;;;;;-9.00;100.00;99556.16;4260155;28;22153;-65
2022/12/14 07:21:17;;;;;;;96.70;32.93;;;;;;;-8.96;100.00;99560.34;4253400;28;20242;-66
2022/12/14 07:23:46;;;;;;;91.07;31.93;;;;;;;-8.90;100.00;99561.06;4264693;28;23090;-66
2022/12/14 07:26:18;;;;;;;89.60;31.07;;;;;;;-8.82;100.00;99566.84;4251376;28;20236;-66
2022/12/14 07:28:45;;;;;;;86.93;30.57;;;;;;;-8.82;100.00;99559.94;4270729;28;20875;-65
2022/12/14 07:31:17;;;;;;;96.87;31.57;;;;;;;-8.80;100.00;99563.34;4258110;28;20277;-64
2022/12/14 07:33:44;;;;;;;97.73;33.80;;;;;;;-8.81;100.00;99556.47;4269208;28;21784;-63
2022/12/14 07:36:14;;;;;;;87.53;32.00;;;;;;;-8.81;100.00;99566.78;4276378;28;22559;-64
2022/12/14 07:38:42;;;;;;;92.00;31.23;;;;;;;-8.78;100.00;99568.44;4265580;28;20271;-65
2022/12/14 07:41:11;;;;;;;88.10;32.07;;;;;;;-8.69;100.00;99568.16;4248430;28;22739;-65
2022/12/14 07:43:38;;;;;;;86.77;31.97;;;;;;;-8.71;100.00;99562.19;4267200;28;20392;-66
2022/12/14 07:46:12;;;;;;;92.37;32.17;;;;;;;-8.74;100.00;99564.88;4277135;28;20240;-67
2022/12/14 07:48:46;;;;;;;104.90;32.87;;;;;;;-8.82;100.00;99562.53;4278427;28;20322;-68
2022/12/14 07:51:16;;;;;;;92.90;32.53;;;;;;;-8.65;100.00;99554.28;4279286;28;20242;-66
2022/12/14 07:53:43;;;;;;;81.97;30.93;;;;;;;-8.53;100.00;99555.66;4275931;28;20238;-64
2022/12/14 07:56:12;;;;;;;88.40;30.53;;;;;;;-8.58;100.00;99560.94;4278572;28;20231;-67
2022/12/14 07:58:38;;;;;;;77.57;30.77;;;;;;;-8.55;100.00;99550.53;4257564;28;21130;-66
2022/12/14 08:01:29;;;;;;;87.23;31.17;;;;;;;-8.36;100.00;99552.50;4283073;28;20233;-68
2022/12/14 08:04:03;;;;;;;96.80;32.17;;;;;;;-8.32;100.00;99556.69;4271504;28;20258;-66
2022/12/14 08:06:31;;;;;;;88.67;29.13;;;;;;;-8.31;100.00;99553.19;4273179;28;23052;-64
2022/12/14 08:08:58;;;;;;;88.27;30.73;;;;;;;-8.31;100.00;99563.53;4293573;28;23225;-66
2022/12/14 08:11:28;;;;;;;86.70;30.33;;;;;;;-8.30;100.00;99566.06;4263040;28;20245;-64
2022/12/14 08:13:57;;;;;;;88.77;29.77;;;;;;;-8.24;100.00;99561.59;4292664;28;20237;-65
2022/12/14 08:16:24;;;;;;;86.63;30.60;;;;;;;-8.31;100.00;99556.66;4269980;28;20225;-66
2022/12/14 08:18:52;;;;;;;88.47;32.23;;;;;;;-8.25;100.00;99558.19;4275717;28;23339;-66
2022/12/14 08:21:20;;;;;;;77.13;29.27;;;;;;;-8.39;100.00;99565.50;4278518;28;20218;-67
2022/12/14 08:23:48;;;;;;;82.87;29.77;;;;;;;-8.24;100.00;99554.72;4334928;28;20232;-69
2022/12/14 08:26:16;;;;;;;82.93;30.63;;;;;;;-8.16;100.00;99552.72;4276699;28;21222;-65
2022/12/14 08:28:43;;;;;;;86.27;29.23;;;;;;;-8.09;100.00;99548.22;4286250;28;20242;-63
2022/12/14 08:31:17;;;;;;;83.57;30.60;;;;;;;-8.07;100.00;99556.75;4268930;28;20231;-67
2022/12/14 08:34:15;;;;;;;82.43;30.63;;;;;;;-8.02;100.00;99554.88;4283089;27;23728;-70
2022/12/14 08:36:41;;;;;;;84.13;30.87;;;;;;;-7.78;100.00;99557.53;4274354;28;20623;-72
2022/12/14 08:39:08;;;;;;;74.83;28.57;;;;;;;-7.78;100.00;99554.94;4240949;28;20304;-74
2022/12/14 08:41:35;;;;;;;78.60;28.67;;;;;;;-7.67;100.00;99560.59;4264007;28;21860;-74
2022/12/14 08:44:02;;;;;;;81.60;29.60;;;;;;;-7.59;100.00;99562.91;4252676;28;21291;-62
2022/12/14 08:46:31;;;;;;;79.03;29.53;;;;;;;-7.54;100.00;99561.88;4272860;28;20257;-76
2022/12/14 08:48:58;;;;;;;78.57;29.73;;;;;;;-7.40;100.00;99563.13;4248827;28;20452;-74
2022/12/14 08:51:26;;;;;;;80.53;28.90;;;;;;;-7.33;100.00;99560.25;4272187;28;21913;-74
2022/12/14 08:53:53;;;;;;;84.60;30.90;;;;;;;-6.71;100.00;99558.03;4221829;28;20540;-75
2022/12/14 08:56:24;;;;;;;86.53;29.70;;;;;;;-4.87;97.62;99560.69;4237888;28;21865;-68
2022/12/14 08:58:52;;;;;;;84.30;29.60;;;;;;;-0.96;85.78;99585.25;4292179;28;20239;-75
2022/12/14 09:01:21;;;;;;;64.53;25.70;;;;;;;1.59;66.07;99605.19;4267455;28;22794;-79
2022/12/14 09:04:01;;;;;;;55.77;23.20;;;;;;;4.38;52.14;99623.41;4275820;28;20335;-80
2022/12/14 09:06:27;;;;;;;59.17;25.07;;;;;;;5.18;44.64;99631.72;4290751;28;20238;-70
2022/12/14 09:08:54;;;;;;;53.03;23.50;;;;;;;6.24;43.17;99626.00;4282062;28;21345;-72
2022/12/14 09:11:21;;;;;;;53.47;23.10;;;;;;;7.09;39.48;99640.31;4240790;28;25399;-75
2022/12/14 09:13:52;;;;;;;53.90;24.07;;;;;;;7.27;35.50;99639.59;4243961;28;20243;-75
2022/12/14 09:16:20;;;;;;;51.63;25.17;;;;;;;7.69;36.32;99641.81;4266771;28;20893;-73
2022/12/14 09:18:47;;;;;;;52.53;22.53;;;;;;;9.38;33.80;99641.09;4277113;28;20235;-72
2022/12/14 09:21:15;;;;;;;52.13;23.47;;;;;;;10.08;31.76;99640.94;4223716;28;23011;-74
2022/12/14 09:23:42;;;;;;;48.37;24.03;;;;;;;11.21;29.53;99638.56;4293263;28;20227;-79
2022/12/14 09:26:19;;;;;;;45.67;22.13;;;;;;;10.44;28.41;99638.91;4262913;28;20235;-82
2022/12/14 09:28:49;;;;;;;45.90;22.40;;;;;;;9.63;29.65;99629.63;4308395;28;20822;-76
2022/12/14 09:31:18;;;;;;;48.33;22.87;;;;;;;10.54;28.78;99636.91;4278516;28;20357;-78
2022/12/14 09:33:45;;;;;;;49.40;22.67;;;;;;;10.97;28.00;99634.91;4265306;28;22476;-79
2022/12/14 09:36:14;;;;;;;48.13;22.10;;;;;;;11.32;26.32;99627.56;4276983;28;21902;-77
2022/12/14 09:38:42;;;;;;;48.07;22.70;;;;;;;10.93;27.43;99619.44;4246708;28;20253;-78
2022/12/14 09:41:18;;;;;;;47.40;22.80;;;;;;;10.23;27.70;99612.72;4298897;28;20344;-76
2022/12/14 09:43:54;;;;;;;48.30;22.93;;;;;;;11.02;27.15;99622.94;4245234;28;20236;-81
2022/12/14 09:46:47;;;;;;;51.90;21.90;;;;;;;12.06;25.38;99624.66;4272593;28;20316;-79
2022/12/14 09:49:40;;;;;;;45.90;21.33;;;;;;;11.65;25.67;99624.81;4258990;28;21023;-77
2022/12/14 09:52:14;;;;;;;43.97;20.60;;;;;;;11.64;26.18;99617.81;4273318;28;21237;-78
2022/12/14 09:54:42;;;;;;;43.40;21.73;;;;;;;12.00;24.45;99614.69;4248871;28;20244;-80
2022/12/14 09:57:14;;;;;;;43.47;20.57;;;;;;;12.29;25.08;99607.84;4228352;28;20302;-76
2022/12/14 09:59:40;;;;;;;41.70;20.17;;;;;;;12.23;24.87;99612.91;4248912;28;21179;-75
2022/12/14 10:02:15;;;;;;;42.80;20.13;;;;;;;10.25;25.36;99594.75;4238086;28;20240;-80
2022/12/14 10:05:08;;;;;;;46.53;20.77;;;;;;;10.01;27.43;99581.44;4259364;28;21213;-76
2022/12/14 10:07:44;;;;;;;42.63;20.13;;;;;;;11.68;25.41;99595.13;4238722;28;20240;-77
2022/12/14 10:10:42;;;;;;;42.77;20.20;;;;;;;12.93;23.45;99603.03;4217895;28;20258;-79
2022/12/14 10:13:26;;;;;;;42.90;20.63;;;;;;;12.63;22.88;99602.13;4248986;28;20244;-72
2022/12/14 10:16:11;;;;;;;43.40;20.90;;;;;;;11.18;24.26;99591.78;4275207;28;22925;-72
2022/12/14 10:18:53;;;;;;;42.47;20.20;;;;;;;10.70;25.35;99579.38;4254741;28;20423;-75
2022/12/14 10:21:37;;;;;;;48.53;21.83;;;;;;;10.73;25.80;99579.06;4319658;28;20264;-74
2022/12/14 10:24:13;;;;;;;45.33;21.60;;;;;;;9.63;26.83;99560.56;4252561;28;20484;-74
2022/12/14 10:26:47;;;;;;;46.33;21.97;;;;;;;9.99;26.78;99560.31;4292011;28;20429;-71
2022/12/14 10:29:25;;;;;;;45.80;21.90;;;;;;;10.93;26.15;99564.41;4241807;28;21342;-73
2022/12/14 10:32:20;;;;;;;49.23;23.50;;;;;;;10.22;26.03;99557.88;4290227;28;21202;-72
2022/12/14 10:34:47;;;;;;;47.53;22.10;;;;;;;9.90;26.95;99546.22;4247833;28;21193;-74
2022/12/14 10:37:25;;;;;;;48.53;22.47;;;;;;;9.41;27.12;99537.22;4239907;28;20251;-70
2022/12/14 10:39:57;;;;;;;54.77;22.53;;;;;;;10.53;27.01;99542.13;4209303;28;20874;-78
2022/12/14 10:43:14;;;;;;;50.33;23.17;;;;;;;9.19;28.06;99526.19;4279042;28;22312;-73
2022/12/14 10:46:12;;;;;;;55.47;23.87;;;;;;;9.88;27.40;99526.94;4230671;28;20271;-72
2022/12/14 10:49:00;;;;;;;50.73;23.73;;;;;;;8.83;28.41;99506.91;4248372;28;21790;-75
2022/12/14 10:51:32;;;;;;;52.40;24.50;;;;;;;9.24;28.95;99507.94;4252446;28;20643;-73
2022/12/14 10:54:32;;;;;;;54.10;24.23;;;;;;;9.41;28.60;99510.66;4240831;28;20448;-73
2022/12/14 10:56:59;;;;;;;54.23;23.80;;;;;;;10.00;28.74;99503.53;4330598;28;20306;-73
2022/12/14 10:59:37;;;;;;;56.67;25.17;;;;;;;10.32;27.15;99509.88;4347412;28;20250;-72
2022/12/14 11:02:24;;;;;;;51.83;24.07;;;;;;;8.02;29.35;99479.59;4352857;28;20252;-71
2022/12/14 11:04:56;;;;;;;49.37;23.53;;;;;;;5.02;34.82;99463.44;4345280;28;20225;-71
2022/12/14 11:07:33;;;;;;;58.07;25.10;;;;;;;2.37;41.07;99431.56;4350149;28;20264;-69
2022/12/14 11:10:28;;;;;;;56.00;24.53;;;;;;;0.19;48.30;99415.84;4191603;28;20340;-69
2022/12/14 11:13:05;;;;;;;55.33;23.97;;;;;;;-0.65;52.43;99404.78;4234350;28;25680;-71
2022/12/14 11:15:35;;;;;;;53.57;23.50;;;;;;;-1.36;57.99;99395.38;4231266;28;20240;-72
2022/12/14 11:18:15;;;;;;;54.27;23.90;;;;;;;-2.05;62.92;99398.72;4213976;28;20381;-72
2022/12/14 11:20:57;;;;;;;56.57;23.13;;;;;;;-2.32;65.26;99386.34;4321125;28;20237;-72
2022/12/14 11:23:37;;;;;;;60.07;24.27;;;;;;;-2.37;66.45;99388.41;4255950;28;20226;-69
2022/12/14 11:26:14;;;;;;;66.53;24.97;;;;;;;-2.44;67.39;99382.69;4212238;28;20250;-72
2022/12/14 11:28:52;;;;;;;57.13;24.07;;;;;;;-3.06;70.31;99374.94;4271522;28;20234;-71
2022/12/14 11:31:19;;;;;;;53.63;22.93;;;;;;;-3.24;71.19;99365.53;4283528;28;20237;-73
2022/12/14 11:33:51;;;;;;;56.03;23.50;;;;;;;-3.12;72.45;99358.81;4288586;28;20317;-72
2022/12/14 11:36:36;;;;;;;57.10;23.53;;;;;;;-3.23;73.52;99351.59;4197805;28;22138;-71
2022/12/14 11:39:11;;;;;;;51.07;21.17;;;;;;;-3.47;74.28;99349.41;4234376;28;20318;-71
2022/12/14 11:41:59;;;;;;;56.50;22.60;;;;;;;-3.42;75.43;99346.56;4248375;28;20229;-71
2022/12/14 11:44:29;;;;;;;59.20;23.73;;;;;;;-3.48;75.18;99347.75;4234573;28;20249;-67
2022/12/14 11:46:59;;;;;;;62.43;23.13;;;;;;;-3.82;77.09;99335.69;4193710;28;20228;-71
2022/12/14 11:49:33;;;;;;;60.53;23.13;;;;;;;-3.61;76.10;99331.13;4223626;28;20416;-71
2022/12/14 11:52:03;;;;;;;54.27;23.03;;;;;;;-3.71;76.99;99341.19;4181177;28;22532;-72
2022/12/14 11:54:31;;;;;;;65.13;24.97;;;;;;;-3.66;77.39;99330.53;4218364;28;20248;-68
2022/12/14 11:57:04;;;;;;;65.13;24.73;;;;;;;-3.88;78.30;99331.69;4169361;28;20279;-76
2022/12/14 11:59:41;;;;;;;72.20;25.53;;;;;;;-3.79;78.14;99330.38;4201480;28;20243;-77
2022/12/14 12:02:29;;;;;;;70.23;25.43;;;;;;;-3.93;79.39;99325.91;4188668;28;20237;-73
2022/12/14 12:05:04;;;;;;;64.43;24.60;;;;;;;-4.01;79.92;99322.00;4214646;28;20322;-75
2022/12/14 12:07:33;;;;;;;61.80;24.87;;;;;;;-4.12;81.25;99319.97;4229521;28;20722;-66